createdAt,value
2018-07-13T00:00:47.397Z,0.00
2018-07-13T00:01:47.378Z,0.00
2018-07-13T00:02:47.366Z,0.00
2018-07-13T00:03:47.349Z,0.00
2018-07-13T00:04:47.337Z,0.00
2018-07-13T00:05:47.319Z,0.00
2018-07-13T00:06:47.305Z,0.00
2018-07-13T00:07:47.292Z,0.00
2018-07-13T00:08:47.280Z,0.00
2018-07-13T00:09:47.262Z,0.00
2018-07-13T00:10:47.249Z,0.00
2018-07-13T00:11:47.238Z,0.00
2018-07-13T00:12:47.220Z,0.00
2018-07-13T00:13:47.204Z,0.00
2018-07-13T00:14:47.191Z,0.00
2018-07-13T00:15:47.178Z,0.00
2018-07-13T00:16:47.163Z,0.00
2018-07-13T00:17:47.147Z,0.00
2018-07-13T00:18:47.136Z,0.00
2018-07-13T00:19:47.120Z,0.00
2018-07-13T00:20:47.105Z,0.00
2018-07-13T00:21:47.090Z,0.00
2018-07-13T00:22:47.076Z,0.00
2018-07-13T00:23:47.061Z,0.00
2018-07-13T00:24:47.047Z,0.00
2018-07-13T00:25:47.031Z,0.00
2018-07-13T00:26:47.017Z,0.00
2018-07-13T00:27:47.007Z,0.00
2018-07-13T00:28:46.989Z,0.00
2018-07-13T00:29:46.972Z,0.00
2018-07-13T00:30:46.960Z,0.00
2018-07-13T00:31:46.946Z,0.00
2018-07-13T00:32:46.933Z,0.00
2018-07-13T00:33:46.917Z,0.00
2018-07-13T00:34:46.905Z,0.00
2018-07-13T00:35:46.923Z,0.00
2018-07-13T00:36:46.873Z,0.00
2018-07-13T00:37:46.858Z,0.00
2018-07-13T00:38:46.845Z,0.00
2018-07-13T00:39:46.829Z,0.00
2018-07-13T00:40:46.815Z,0.00
2018-07-13T00:41:46.803Z,0.00
2018-07-13T00:42:46.784Z,0.00
2018-07-13T00:43:46.770Z,0.00
2018-07-13T00:44:46.765Z,0.00
2018-07-13T00:45:46.743Z,0.00
2018-07-13T00:46:46.727Z,0.00
2018-07-13T00:47:46.715Z,0.00
2018-07-13T00:48:46.701Z,0.00
2018-07-13T00:49:46.683Z,0.00
2018-07-13T00:50:46.670Z,0.00
2018-07-13T00:51:46.707Z,0.00
2018-07-13T00:52:46.649Z,0.00
2018-07-13T00:53:46.629Z,0.00
2018-07-13T00:54:46.614Z,0.00
2018-07-13T00:55:46.598Z,0.00
2018-07-13T00:56:46.587Z,0.00
2018-07-13T00:57:46.569Z,0.00
2018-07-13T00:58:46.555Z,0.00
2018-07-13T00:59:46.540Z,0.00
2018-07-13T01:00:46.526Z,0.00
2018-07-13T01:01:46.509Z,0.00
2018-07-13T01:02:46.515Z,0.00
2018-07-13T01:03:46.485Z,0.00
2018-07-13T01:04:46.465Z,0.00
2018-07-13T01:05:46.455Z,0.00
2018-07-13T01:06:46.441Z,0.00
2018-07-13T01:07:46.429Z,0.00
2018-07-13T01:08:46.410Z,0.00
2018-07-13T01:09:46.395Z,0.00
2018-07-13T01:10:46.381Z,0.00
2018-07-13T01:11:46.367Z,0.00
2018-07-13T01:12:46.354Z,0.00
2018-07-13T01:13:46.337Z,0.00
2018-07-13T01:14:46.325Z,0.00
2018-07-13T01:15:46.308Z,0.00
2018-07-13T01:16:46.300Z,0.00
2018-07-13T01:17:46.279Z,0.00
2018-07-13T01:18:46.265Z,0.00
2018-07-13T01:19:46.248Z,0.00
2018-07-13T01:20:46.234Z,0.00
2018-07-13T01:21:46.229Z,0.00
2018-07-13T01:22:46.207Z,0.00
2018-07-13T01:23:46.194Z,0.00
2018-07-13T01:24:46.176Z,0.00
2018-07-13T01:25:46.161Z,0.00
2018-07-13T01:26:46.146Z,0.00
2018-07-13T01:27:46.133Z,0.00
2018-07-13T01:28:46.119Z,0.00
2018-07-13T01:29:46.103Z,0.00
2018-07-13T01:30:46.089Z,0.00
2018-07-13T01:31:46.073Z,0.00
2018-07-13T01:32:46.060Z,0.00
2018-07-13T01:33:46.044Z,0.00
2018-07-13T01:34:46.032Z,0.00
2018-07-13T01:35:46.015Z,0.00
2018-07-13T01:36:46.001Z,0.00
2018-07-13T01:37:45.986Z,0.00
2018-07-13T01:38:45.975Z,0.00
2018-07-13T01:39:45.953Z,0.00
2018-07-13T01:40:45.942Z,0.00
2018-07-13T01:41:45.926Z,0.00
2018-07-13T01:42:45.915Z,0.00
2018-07-13T01:43:45.895Z,0.00
2018-07-13T01:44:45.883Z,0.00
2018-07-13T01:45:45.866Z,0.00
2018-07-13T01:46:45.853Z,0.00
2018-07-13T01:47:45.843Z,0.00
2018-07-13T01:48:45.826Z,0.00
2018-07-13T01:49:45.808Z,0.00
2018-07-13T01:50:45.794Z,0.00
2018-07-13T01:51:45.782Z,0.00
2018-07-13T01:52:45.764Z,0.00
2018-07-13T01:53:45.748Z,0.00
2018-07-13T01:54:45.733Z,0.00
2018-07-13T01:55:45.854Z,0.00
2018-07-13T01:56:45.704Z,0.00
2018-07-13T01:57:45.690Z,0.00
2018-07-13T01:58:45.674Z,0.00
2018-07-13T01:59:45.659Z,0.00
2018-07-13T02:00:45.645Z,0.00
2018-07-13T02:01:45.629Z,0.00
2018-07-13T02:02:45.614Z,0.00
2018-07-13T02:03:45.600Z,0.00
2018-07-13T02:04:45.585Z,0.00
2018-07-13T02:05:45.573Z,0.00
2018-07-13T02:06:45.553Z,0.00
2018-07-13T02:07:45.538Z,0.00
2018-07-13T02:08:45.529Z,0.00
2018-07-13T02:09:45.510Z,0.00
2018-07-13T02:10:45.493Z,0.00
2018-07-13T02:11:45.481Z,0.00
2018-07-13T02:12:45.464Z,0.00
2018-07-13T02:13:45.454Z,0.00
2018-07-13T02:14:45.436Z,0.00
2018-07-13T02:15:45.420Z,0.00
2018-07-13T02:16:45.406Z,0.00
2018-07-13T02:17:45.390Z,0.00
2018-07-13T02:18:45.380Z,0.00
2018-07-13T02:19:45.364Z,0.00
2018-07-13T02:20:45.346Z,0.00
2018-07-13T02:21:45.333Z,0.00
2018-07-13T02:22:45.316Z,0.00
2018-07-13T02:23:45.303Z,4.00
2018-07-13T02:24:45.287Z,4.00
2018-07-13T02:25:45.271Z,4.00
2018-07-13T02:26:45.257Z,0.00
2018-07-13T02:27:45.242Z,0.00
2018-07-13T02:28:45.236Z,4.00
2018-07-13T02:29:45.214Z,4.00
2018-07-13T02:30:45.198Z,4.00
2018-07-13T02:31:45.183Z,8.00
2018-07-13T02:32:45.166Z,4.00
2018-07-13T02:33:45.191Z,8.00
2018-07-13T02:34:45.136Z,8.00
2018-07-13T02:35:45.121Z,8.00
2018-07-13T02:36:45.159Z,12.00
2018-07-13T02:37:45.142Z,8.00
2018-07-13T02:38:45.085Z,12.00
2018-07-13T02:39:45.062Z,12.00
2018-07-13T02:40:45.049Z,16.00
2018-07-13T02:41:45.039Z,16.00
2018-07-13T02:42:45.017Z,16.00
2018-07-13T02:43:45.005Z,24.00
2018-07-13T02:44:44.991Z,24.00
2018-07-13T02:45:44.969Z,24.00
2018-07-13T02:46:44.954Z,28.00
2018-07-13T02:47:44.939Z,32.00
2018-07-13T02:48:44.928Z,36.00
2018-07-13T02:49:44.908Z,40.00
2018-07-13T02:50:44.895Z,44.00
2018-07-13T02:51:44.883Z,44.00
2018-07-13T02:52:44.870Z,44.00
2018-07-13T02:53:44.854Z,52.00
2018-07-13T02:54:44.833Z,52.00
2018-07-13T02:55:44.818Z,60.00
2018-07-13T02:56:44.805Z,64.00
2018-07-13T02:57:44.788Z,72.00
2018-07-13T02:58:44.773Z,72.00
2018-07-13T02:59:44.759Z,76.00
2018-07-13T03:00:44.746Z,84.00
2018-07-13T03:01:44.728Z,92.00
2018-07-13T03:02:44.713Z,96.00
2018-07-13T03:03:44.699Z,104.00
2018-07-13T03:04:44.687Z,108.00
2018-07-13T03:05:44.668Z,116.00
2018-07-13T03:06:44.652Z,128.00
2018-07-13T03:07:44.638Z,132.00
2018-07-13T03:08:44.623Z,140.00
2018-07-13T03:09:44.606Z,152.00
2018-07-13T03:10:44.595Z,160.00
2018-07-13T03:11:44.577Z,168.00
2018-07-13T03:12:44.562Z,176.00
2018-07-13T03:13:44.545Z,184.00
2018-07-13T03:14:44.528Z,196.00
2018-07-13T03:15:44.515Z,200.00
2018-07-13T03:16:44.500Z,208.00
2018-07-13T03:17:44.484Z,216.00
2018-07-13T03:18:44.477Z,228.00
2018-07-13T03:19:44.455Z,236.00
2018-07-13T03:20:44.442Z,244.00
2018-07-13T03:21:44.423Z,248.00
2018-07-13T03:22:44.409Z,256.00
2018-07-13T03:23:44.392Z,264.00
2018-07-13T03:24:44.377Z,272.00
2018-07-13T03:25:44.362Z,284.00
2018-07-13T03:26:44.346Z,292.00
2018-07-13T03:27:44.332Z,300.00
2018-07-13T03:28:44.315Z,312.00
2018-07-13T03:29:44.303Z,320.00
2018-07-13T03:30:44.285Z,336.00
2018-07-13T03:31:44.272Z,340.00
2018-07-13T03:32:44.255Z,352.00
2018-07-13T03:33:44.239Z,360.00
2018-07-13T03:34:44.230Z,368.00
2018-07-13T03:35:44.207Z,376.00
2018-07-13T03:36:44.193Z,396.00
2018-07-13T03:37:44.176Z,408.00
2018-07-13T03:38:44.161Z,416.00
2018-07-13T03:39:44.146Z,428.00
2018-07-13T03:40:44.133Z,440.00
2018-07-13T03:41:44.114Z,448.00
2018-07-13T03:42:44.100Z,456.00
2018-07-13T03:43:44.084Z,464.00
2018-07-13T03:44:44.070Z,472.00
2018-07-13T03:45:44.053Z,480.00
2018-07-13T03:46:44.040Z,488.00
2018-07-13T03:47:44.024Z,496.00
2018-07-13T03:48:44.053Z,500.00
2018-07-13T03:49:43.992Z,508.00
2018-07-13T03:50:43.978Z,516.00
2018-07-13T03:51:43.961Z,524.00
2018-07-13T03:52:43.946Z,532.00
2018-07-13T03:53:43.939Z,540.00
2018-07-13T03:54:43.915Z,548.00
2018-07-13T03:55:43.899Z,556.00
2018-07-13T03:56:43.884Z,568.00
2018-07-13T03:57:43.869Z,576.00
2018-07-13T03:58:43.853Z,580.00
2018-07-13T03:59:43.838Z,588.00
2018-07-13T04:00:43.824Z,596.00
2018-07-13T04:01:43.807Z,604.00
2018-07-13T04:02:43.790Z,612.00
2018-07-13T04:03:43.779Z,620.00
2018-07-13T04:04:43.760Z,632.00
2018-07-13T04:05:43.745Z,648.00
2018-07-13T04:06:43.729Z,660.00
2018-07-13T04:07:43.713Z,676.00
2018-07-13T04:08:43.696Z,692.00
2018-07-13T04:09:43.680Z,712.00
2018-07-13T04:10:43.669Z,728.00
2018-07-13T04:11:43.651Z,752.00
2018-07-13T04:12:43.633Z,772.00
2018-07-13T04:13:43.623Z,788.00
2018-07-13T04:14:43.665Z,800.00
2018-07-13T04:15:43.595Z,820.00
2018-07-13T04:16:43.576Z,832.00
2018-07-13T04:17:43.557Z,844.00
2018-07-13T04:18:43.542Z,860.00
2018-07-13T04:19:43.526Z,876.00
2018-07-13T04:20:43.509Z,896.00
2018-07-13T04:21:43.494Z,912.00
2018-07-13T04:22:43.477Z,928.00
2018-07-13T04:23:43.462Z,948.00
2018-07-13T04:24:43.448Z,964.00
2018-07-13T04:25:43.432Z,972.00
2018-07-13T04:26:43.418Z,984.00
2018-07-13T04:27:43.404Z,1000.00
2018-07-13T04:28:43.450Z,1012.00
2018-07-13T04:29:43.371Z,1020.00
2018-07-13T04:30:43.356Z,1028.00
2018-07-13T04:31:43.339Z,1036.00
2018-07-13T04:32:43.324Z,1044.00
2018-07-13T04:33:43.308Z,1056.00
2018-07-13T04:34:43.292Z,1064.00
2018-07-13T04:35:43.277Z,1076.00
2018-07-13T04:36:43.262Z,1084.00
2018-07-13T04:37:43.245Z,1092.00
2018-07-13T04:38:43.230Z,1104.00
2018-07-13T04:39:43.215Z,1116.00
2018-07-13T04:40:43.206Z,1132.00
2018-07-13T04:41:43.181Z,1144.00
2018-07-13T04:42:43.167Z,1152.00
2018-07-13T04:43:43.152Z,1164.00
2018-07-13T04:44:43.141Z,1176.00
2018-07-13T04:45:43.122Z,1188.00
2018-07-13T04:46:43.104Z,1196.00
2018-07-13T04:47:43.090Z,1208.00
2018-07-13T04:48:43.075Z,1216.00
2018-07-13T04:49:43.059Z,1232.00
2018-07-13T04:50:43.045Z,1240.00
2018-07-13T04:51:43.029Z,1248.00
2018-07-13T04:52:43.016Z,1260.00
2018-07-13T04:53:42.999Z,1268.00
2018-07-13T04:54:42.981Z,1280.00
2018-07-13T04:55:42.966Z,1288.00
2018-07-13T04:56:42.957Z,1304.00
2018-07-13T04:57:42.939Z,1312.00
2018-07-13T04:58:42.923Z,1324.00
2018-07-13T04:59:42.907Z,1332.00
2018-07-13T05:00:42.911Z,1348.00
2018-07-13T05:01:42.894Z,1360.00
2018-07-13T05:02:42.863Z,1376.00
2018-07-13T05:03:42.847Z,1392.00
2018-07-13T05:04:42.831Z,1416.00
2018-07-13T05:05:42.815Z,1428.00
2018-07-13T05:06:42.799Z,1440.00
2018-07-13T05:07:42.785Z,1452.00
2018-07-13T05:08:42.767Z,1468.00
2018-07-13T05:09:42.750Z,1488.00
2018-07-13T05:10:42.738Z,1500.00
2018-07-13T05:11:42.722Z,1516.00
2018-07-13T05:12:42.711Z,1528.00
2018-07-13T05:13:42.691Z,1540.00
2018-07-13T05:14:42.676Z,1548.00
2018-07-13T05:15:42.661Z,1564.00
2018-07-13T05:16:42.643Z,1580.00
2018-07-13T05:17:42.629Z,1596.00
2018-07-13T05:18:42.614Z,1616.00
2018-07-13T05:19:42.600Z,1636.00
2018-07-13T05:20:42.583Z,1664.00
2018-07-13T05:21:42.570Z,1692.00
2018-07-13T05:22:42.552Z,1724.00
2018-07-13T05:23:42.584Z,1740.00
2018-07-13T05:24:42.522Z,1744.00
2018-07-13T05:25:42.504Z,1736.00
2018-07-13T05:26:42.490Z,1720.00
2018-07-13T05:27:42.475Z,1708.00
2018-07-13T05:28:42.461Z,1708.00
2018-07-13T05:29:42.445Z,1720.00
2018-07-13T05:30:42.464Z,1740.00
2018-07-13T05:31:42.418Z,1764.00
2018-07-13T05:32:42.403Z,1780.00
2018-07-13T05:33:42.385Z,1812.00
2018-07-13T05:34:42.370Z,1876.00
2018-07-13T05:35:42.355Z,1956.00
2018-07-13T05:36:42.342Z,1984.00
2018-07-13T05:37:42.324Z,1992.00
2018-07-13T05:38:42.311Z,1976.00
2018-07-13T05:39:42.317Z,1992.00
2018-07-13T05:40:42.279Z,2044.00
2018-07-13T05:41:42.263Z,2100.00
2018-07-13T05:42:42.249Z,2200.00
2018-07-13T05:43:42.236Z,2496.00
2018-07-13T05:44:42.220Z,2760.00
2018-07-13T05:45:42.203Z,3012.00
2018-07-13T05:46:42.187Z,3060.00
2018-07-13T05:47:42.174Z,3024.00
2018-07-13T05:48:42.161Z,3008.00
2018-07-13T05:49:42.211Z,3012.00
2018-07-13T05:50:42.134Z,3240.00
2018-07-13T05:51:42.114Z,3344.00
2018-07-13T05:52:42.101Z,3188.00
2018-07-13T05:53:42.087Z,2872.00
2018-07-13T05:54:42.069Z,3020.00
2018-07-13T05:55:42.054Z,3484.00
2018-07-13T05:56:42.040Z,3912.00
2018-07-13T05:57:42.026Z,4300.00
2018-07-13T05:58:42.010Z,4456.00
2018-07-13T05:59:41.994Z,4504.00
2018-07-13T06:00:41.980Z,4548.00
2018-07-13T06:01:41.969Z,4280.00
2018-07-13T06:02:41.954Z,3948.00
2018-07-13T06:03:41.936Z,3804.00
2018-07-13T06:04:41.924Z,3604.00
2018-07-13T06:05:41.909Z,3312.00
2018-07-13T06:06:41.892Z,3188.00
2018-07-13T06:07:41.878Z,3144.00
2018-07-13T06:08:41.865Z,3228.00
2018-07-13T06:09:41.896Z,3344.00
2018-07-13T06:10:41.832Z,3424.00
2018-07-13T06:11:41.821Z,3664.00
2018-07-13T06:12:41.807Z,4104.00
2018-07-13T06:13:41.791Z,4340.00
2018-07-13T06:14:41.847Z,4452.00
2018-07-13T06:15:41.762Z,4468.00
2018-07-13T06:16:41.750Z,4660.00
2018-07-13T06:17:41.734Z,4516.00
2018-07-13T06:18:41.722Z,4808.00
2018-07-13T06:19:41.705Z,5200.00
2018-07-13T06:20:41.691Z,5156.00
2018-07-13T06:21:41.677Z,4964.00
2018-07-13T06:22:41.662Z,4772.00
2018-07-13T06:23:41.648Z,4756.00
2018-07-13T06:24:41.636Z,4572.00
2018-07-13T06:25:41.618Z,4336.00
2018-07-13T06:26:41.605Z,4060.00
2018-07-13T06:27:41.595Z,3980.00
2018-07-13T06:28:41.576Z,4268.00
2018-07-13T06:29:41.563Z,4832.00
2018-07-13T06:30:41.551Z,5304.00
2018-07-13T06:31:41.537Z,5184.00
2018-07-13T06:32:41.521Z,5168.00
2018-07-13T06:33:41.506Z,5192.00
2018-07-13T06:34:41.493Z,4924.00
2018-07-13T06:35:41.478Z,4868.00
2018-07-13T06:36:41.464Z,5004.00
2018-07-13T06:37:41.452Z,5004.00
2018-07-13T06:38:41.435Z,4872.00
2018-07-13T06:39:41.422Z,4592.00
2018-07-13T06:40:41.413Z,4364.00
2018-07-13T06:41:41.394Z,4448.00
2018-07-13T06:42:41.389Z,4428.00
2018-07-13T06:43:41.368Z,4548.00
2018-07-13T06:44:41.423Z,4524.00
2018-07-13T06:45:41.339Z,4700.00
2018-07-13T06:46:41.325Z,5144.00
2018-07-13T06:47:41.320Z,5024.00
2018-07-13T06:48:41.311Z,4916.00
2018-07-13T06:49:41.282Z,4908.00
2018-07-13T06:50:41.279Z,4628.00
2018-07-13T06:51:41.262Z,4536.00
2018-07-13T06:52:41.244Z,4264.00
2018-07-13T06:53:41.228Z,4068.00
2018-07-13T06:54:41.215Z,4056.00
2018-07-13T06:55:41.203Z,4076.00
2018-07-13T06:56:41.224Z,4028.00
2018-07-13T06:57:41.175Z,4004.00
2018-07-13T06:58:41.169Z,4220.00
2018-07-13T06:59:41.148Z,4496.00
2018-07-13T07:00:41.137Z,4616.00
2018-07-13T07:01:41.132Z,4632.00
2018-07-13T07:02:41.110Z,4664.00
2018-07-13T07:03:41.097Z,4660.00
2018-07-13T07:04:41.097Z,4484.00
2018-07-13T07:05:41.068Z,4428.00
2018-07-13T07:06:41.060Z,4396.00
2018-07-13T07:07:41.111Z,4632.00
2018-07-13T07:08:41.029Z,4804.00
2018-07-13T07:09:41.018Z,4936.00
2018-07-13T07:10:41.056Z,5308.00
2018-07-13T07:11:40.990Z,5740.00
2018-07-13T07:12:40.977Z,5732.00
2018-07-13T07:13:40.964Z,5780.00
2018-07-13T07:14:40.952Z,6588.00
2018-07-13T07:15:40.941Z,7784.00
2018-07-13T07:16:40.923Z,7232.00
2018-07-13T07:17:40.936Z,6876.00
2018-07-13T07:18:40.900Z,6196.00
2018-07-13T07:19:40.885Z,5972.00
2018-07-13T07:20:40.880Z,6908.00
2018-07-13T07:21:40.868Z,8192.00
2018-07-13T07:22:40.845Z,8884.00
2018-07-13T07:23:40.835Z,8420.00
2018-07-13T07:24:40.825Z,7820.00
2018-07-13T07:25:40.809Z,6668.00
2018-07-13T07:26:40.796Z,6372.00
2018-07-13T07:27:40.782Z,6756.00
2018-07-13T07:28:40.769Z,8128.00
2018-07-13T07:29:40.757Z,8628.00
2018-07-13T07:30:40.774Z,9016.00
2018-07-13T07:31:40.733Z,8668.00
2018-07-13T07:32:40.721Z,8184.00
2018-07-13T07:33:40.706Z,7544.00
2018-07-13T07:34:40.694Z,6940.00
2018-07-13T07:35:40.683Z,6400.00
2018-07-13T07:36:40.671Z,5956.00
2018-07-13T07:37:40.660Z,5312.00
2018-07-13T07:38:40.649Z,5296.00
2018-07-13T07:39:40.636Z,5068.00
2018-07-13T07:40:40.620Z,4956.00
2018-07-13T07:41:40.609Z,4628.00
2018-07-13T07:42:40.597Z,4432.00
2018-07-13T07:43:40.587Z,4312.00
2018-07-13T07:44:40.571Z,4696.00
2018-07-13T07:45:40.559Z,5076.00
2018-07-13T07:46:40.550Z,5276.00
2018-07-13T07:47:40.537Z,4676.00
2018-07-13T07:48:40.528Z,4508.00
2018-07-13T07:49:40.513Z,4668.00
2018-07-13T07:50:40.499Z,4648.00
2018-07-13T07:51:40.487Z,4564.00
2018-07-13T07:52:40.480Z,4648.00
2018-07-13T07:53:40.464Z,4716.00
2018-07-13T07:54:40.452Z,4928.00
2018-07-13T07:55:40.442Z,5424.00
2018-07-13T07:56:40.427Z,5780.00
2018-07-13T07:57:40.481Z,5868.00
2018-07-13T07:58:40.404Z,5612.00
2018-07-13T07:59:40.401Z,4996.00
2018-07-13T08:00:40.378Z,4660.00
2018-07-13T08:01:40.380Z,4448.00
2018-07-13T08:02:40.354Z,4632.00
2018-07-13T08:03:40.343Z,5176.00
2018-07-13T08:04:40.339Z,5932.00
2018-07-13T08:05:40.319Z,6196.00
2018-07-13T08:06:40.519Z,6232.00
2018-07-13T08:07:40.333Z,6580.00
2018-07-13T08:08:40.284Z,8708.00
2018-07-13T08:09:40.268Z,12204.00
2018-07-13T08:10:40.261Z,10900.00
2018-07-13T08:11:40.245Z,9980.00
2018-07-13T08:12:40.232Z,8740.00
2018-07-13T08:13:40.240Z,7396.00
2018-07-13T08:14:40.335Z,6668.00
2018-07-13T08:15:40.197Z,5988.00
2018-07-13T08:16:40.185Z,5324.00
2018-07-13T08:17:40.178Z,4996.00
2018-07-13T08:18:40.167Z,4992.00
2018-07-13T08:19:40.167Z,6344.00
2018-07-13T08:20:40.136Z,5904.00
2018-07-13T08:21:40.123Z,5036.00
2018-07-13T08:22:40.111Z,4696.00
2018-07-13T08:23:40.101Z,4528.00
2018-07-13T08:24:40.093Z,4500.00
2018-07-13T08:25:40.083Z,4628.00
2018-07-13T08:26:40.114Z,4744.00
2018-07-13T08:27:40.053Z,4996.00
2018-07-13T08:28:40.040Z,5324.00
2018-07-13T08:29:40.027Z,5432.00
2018-07-13T08:30:40.014Z,5528.00
2018-07-13T08:31:40.008Z,5540.00
2018-07-13T08:32:40.000Z,5800.00
2018-07-13T08:33:39.981Z,6064.00
2018-07-13T08:34:39.967Z,6516.00
2018-07-13T08:35:39.956Z,7604.00
2018-07-13T08:36:39.945Z,6948.00
2018-07-13T08:37:39.949Z,6940.00
2018-07-13T08:38:39.919Z,6992.00
2018-07-13T08:39:39.908Z,7396.00
2018-07-13T08:40:39.901Z,7920.00
2018-07-13T08:41:39.886Z,9916.00
2018-07-13T08:42:39.876Z,9012.00
2018-07-13T08:43:39.861Z,13612.00
2018-07-13T08:44:39.848Z,27232.00
2018-07-13T08:45:39.854Z,21056.00
2018-07-13T08:46:39.821Z,16464.00
2018-07-13T08:47:39.819Z,11704.00
2018-07-13T08:48:39.800Z,9980.00
2018-07-13T08:49:39.791Z,8504.00
2018-07-13T08:50:39.780Z,6968.00
2018-07-13T08:51:39.809Z,5672.00
2018-07-13T08:52:39.768Z,4552.00
2018-07-13T08:53:39.747Z,3748.00
2018-07-13T08:54:39.730Z,3248.00
2018-07-13T08:55:39.727Z,2912.00
2018-07-13T08:56:39.714Z,2704.00
2018-07-13T08:57:39.695Z,2452.00
2018-07-13T08:58:39.686Z,2320.00
2018-07-13T08:59:39.692Z,2296.00
2018-07-13T09:00:39.663Z,2340.00
2018-07-13T09:01:39.689Z,2416.00
2018-07-13T09:02:39.642Z,2500.00
2018-07-13T09:03:39.630Z,2616.00
2018-07-13T09:04:39.619Z,2796.00
2018-07-13T09:05:39.669Z,3092.00
2018-07-13T09:06:39.590Z,3376.00
2018-07-13T09:07:39.681Z,3728.00
2018-07-13T09:08:39.574Z,4184.00
2018-07-13T09:09:39.555Z,4648.00
2018-07-13T09:10:39.577Z,5296.00
2018-07-13T09:11:39.533Z,5932.00
2018-07-13T09:12:39.527Z,6392.00
2018-07-13T09:13:39.507Z,6520.00
2018-07-13T09:14:39.494Z,6700.00
2018-07-13T09:15:39.480Z,6344.00
2018-07-13T09:16:39.470Z,5976.00
2018-07-13T09:17:39.462Z,5620.00
2018-07-13T09:18:39.449Z,5456.00
2018-07-13T09:19:39.439Z,5416.00
2018-07-13T09:20:39.425Z,5572.00
2018-07-13T09:21:39.464Z,5756.00
2018-07-13T09:22:39.397Z,5984.00
2018-07-13T09:23:39.393Z,6488.00
2018-07-13T09:24:39.373Z,7036.00
2018-07-13T09:25:39.371Z,6424.00
2018-07-13T09:26:39.345Z,5332.00
2018-07-13T09:27:39.338Z,4756.00
2018-07-13T09:28:39.325Z,4520.00
2018-07-13T09:29:39.318Z,4600.00
2018-07-13T09:30:39.301Z,4740.00
2018-07-13T09:31:39.288Z,5380.00
2018-07-13T09:32:39.275Z,5828.00
2018-07-13T09:33:39.263Z,6404.00
2018-07-13T09:34:39.254Z,7100.00
2018-07-13T09:35:39.240Z,7416.00
2018-07-13T09:36:39.228Z,7784.00
2018-07-13T09:37:39.213Z,7912.00
2018-07-13T09:38:39.202Z,8076.00
2018-07-13T09:39:39.290Z,8148.00
2018-07-13T09:40:39.179Z,8156.00
2018-07-13T09:41:39.170Z,7944.00
2018-07-13T09:42:39.164Z,7700.00
2018-07-13T09:43:39.144Z,7692.00
2018-07-13T09:44:39.145Z,7784.00
2018-07-13T09:45:39.116Z,7792.00
2018-07-13T09:46:39.161Z,8048.00
2018-07-13T09:47:39.095Z,8796.00
2018-07-13T09:48:39.082Z,10068.00
2018-07-13T09:49:39.085Z,11340.00
2018-07-13T09:50:39.057Z,12580.00
2018-07-13T09:51:39.045Z,13044.00
2018-07-13T09:52:39.040Z,12552.00
2018-07-13T09:53:39.091Z,11836.00
2018-07-13T09:54:39.015Z,10188.00
2018-07-13T09:55:38.998Z,10372.00
2018-07-13T09:56:38.998Z,11056.00
2018-07-13T09:57:39.005Z,10968.00
2018-07-13T09:58:38.983Z,10688.00
2018-07-13T09:59:38.951Z,10836.00
2018-07-13T10:00:39.084Z,10552.00
2018-07-13T10:01:38.931Z,10376.00
2018-07-13T10:02:38.916Z,10340.00
2018-07-13T10:03:38.903Z,10056.00
2018-07-13T10:04:38.894Z,9904.00
2018-07-13T10:05:38.881Z,9576.00
2018-07-13T10:06:38.871Z,8848.00
2018-07-13T10:07:38.857Z,8464.00
2018-07-13T10:08:38.848Z,8504.00
2018-07-13T10:09:38.833Z,7996.00
2018-07-13T10:10:38.822Z,7416.00
2018-07-13T10:11:38.812Z,7340.00
2018-07-13T10:12:38.799Z,7612.00
2018-07-13T10:13:38.790Z,8084.00
2018-07-13T10:14:38.777Z,8604.00
2018-07-13T10:15:38.770Z,9280.00
2018-07-13T10:16:38.769Z,10228.00
2018-07-13T10:17:38.746Z,11616.00
2018-07-13T10:18:38.730Z,13160.00
2018-07-13T10:19:38.723Z,14152.00
2018-07-13T10:20:38.718Z,14680.00
2018-07-13T10:21:38.700Z,14420.00
2018-07-13T10:22:38.690Z,12884.00
2018-07-13T10:23:38.678Z,11928.00
2018-07-13T10:24:38.670Z,11232.00
2018-07-13T10:25:38.657Z,10900.00
2018-07-13T10:26:38.643Z,10344.00
2018-07-13T10:27:38.636Z,9756.00
2018-07-13T10:28:38.623Z,9472.00
2018-07-13T10:29:38.614Z,9280.00
2018-07-13T10:30:38.602Z,9208.00
2018-07-13T10:31:38.593Z,9428.00
2018-07-13T10:32:38.583Z,9648.00
2018-07-13T10:33:38.567Z,9852.00
2018-07-13T10:34:38.556Z,10188.00
2018-07-13T10:35:38.547Z,10464.00
2018-07-13T10:36:38.537Z,11528.00
2018-07-13T10:37:38.524Z,11980.00
2018-07-13T10:38:38.513Z,11456.00
2018-07-13T10:39:38.504Z,11376.00
2018-07-13T10:40:38.494Z,11568.00
2018-07-13T10:41:38.485Z,11940.00
2018-07-13T10:42:38.471Z,12312.00
2018-07-13T10:43:38.462Z,12824.00
2018-07-13T10:44:38.449Z,13320.00
2018-07-13T10:45:38.453Z,13720.00
2018-07-13T10:46:38.429Z,13332.00
2018-07-13T10:47:38.425Z,13188.00
2018-07-13T10:48:38.410Z,13432.00
2018-07-13T10:49:38.397Z,13816.00
2018-07-13T10:50:38.392Z,14068.00
2018-07-13T10:51:38.454Z,14232.00
2018-07-13T10:52:38.369Z,14640.00
2018-07-13T10:53:38.358Z,15236.00
2018-07-13T10:54:38.348Z,15452.00
2018-07-13T10:55:38.341Z,15608.00
2018-07-13T10:56:38.327Z,16032.00
2018-07-13T10:57:38.316Z,17024.00
2018-07-13T10:58:38.354Z,17792.00
2018-07-13T10:59:38.301Z,18528.00
2018-07-13T11:00:38.287Z,18048.00
2018-07-13T11:01:38.281Z,18176.00
2018-07-13T11:02:38.269Z,17760.00
2018-07-13T11:03:38.258Z,17088.00
2018-07-13T11:04:38.249Z,16480.00
2018-07-13T11:05:38.243Z,16260.00
2018-07-13T11:06:38.230Z,16460.00
2018-07-13T11:07:38.227Z,15984.00
2018-07-13T11:08:38.213Z,16192.00
2018-07-13T11:09:38.205Z,16680.00
2018-07-13T11:10:38.193Z,17024.00
2018-07-13T11:11:38.182Z,17312.00
2018-07-13T11:12:38.176Z,17632.00
2018-07-13T11:13:38.192Z,18304.00
2018-07-13T11:14:41.012Z,18336.00
2018-07-13T11:15:38.152Z,17824.00
2018-07-13T11:16:38.141Z,20544.00
2018-07-13T11:17:38.129Z,18816.00
2018-07-13T11:18:38.120Z,20448.00
2018-07-13T11:19:38.120Z,23456.00
2018-07-13T11:20:38.103Z,23744.00
2018-07-13T11:21:38.097Z,26368.00
2018-07-13T11:22:38.084Z,31040.00
2018-07-13T11:23:38.074Z,32672.00
2018-07-13T11:24:38.068Z,33760.00
2018-07-13T11:25:38.059Z,27584.00
2018-07-13T11:26:38.052Z,27072.00
2018-07-13T11:27:38.042Z,32896.00
2018-07-13T11:28:38.036Z,35008.00
2018-07-13T11:29:38.077Z,40896.00
2018-07-13T11:30:38.013Z,51392.00
2018-07-13T11:31:38.011Z,48544.00
2018-07-13T11:32:38.000Z,47936.00
2018-07-13T11:33:37.997Z,63200.00
2018-07-13T11:34:37.988Z,71424.00
2018-07-13T11:35:37.978Z,59904.00
2018-07-13T11:36:37.968Z,58048.00
2018-07-13T11:37:37.964Z,54240.00
2018-07-13T11:38:37.957Z,48000.00
2018-07-13T11:39:37.949Z,57600.00
2018-07-13T11:40:37.942Z,65024.00
2018-07-13T11:41:37.937Z,70880.00
2018-07-13T11:42:37.931Z,63872.00
2018-07-13T11:43:37.927Z,95520.00
2018-07-13T11:44:37.924Z,80800.00
2018-07-13T11:45:37.924Z,72992.00
2018-07-13T11:46:37.906Z,82496.00
2018-07-13T11:47:37.901Z,91744.00
2018-07-13T11:48:37.899Z,102848.00
2018-07-13T11:49:37.892Z,98176.00
2018-07-13T11:50:37.891Z,96832.00
2018-07-13T11:51:37.886Z,97600.00
2018-07-13T11:52:37.882Z,80640.00
2018-07-13T11:53:37.876Z,109824.00
2018-07-13T11:54:37.873Z,15072.00
2018-07-13T11:55:37.870Z,14672.00
2018-07-13T11:56:37.866Z,14824.00
2018-07-13T11:57:37.860Z,14168.00
2018-07-13T11:58:37.860Z,13944.00
2018-07-13T11:59:37.868Z,15904.00
2018-07-13T12:00:37.892Z,16192.00
2018-07-13T12:01:37.844Z,16928.00
2018-07-13T12:02:37.845Z,17504.00
2018-07-13T12:03:37.841Z,16640.00
2018-07-13T12:04:37.852Z,15840.00
2018-07-13T12:05:37.832Z,15488.00
2018-07-13T12:06:37.829Z,15552.00
2018-07-13T12:07:37.941Z,16032.00
2018-07-13T12:08:37.822Z,16768.00
2018-07-13T12:09:37.816Z,16736.00
2018-07-13T12:10:37.813Z,37536.00
2018-07-13T12:11:37.812Z,44960.00
2018-07-13T12:12:37.811Z,27680.00
2018-07-13T12:13:37.800Z,17760.00
2018-07-13T12:14:37.797Z,15424.00
2018-07-13T12:15:37.797Z,16416.00
2018-07-13T12:16:37.814Z,14164.00
2018-07-13T12:17:37.806Z,16416.00
2018-07-13T12:18:37.780Z,14816.00
2018-07-13T12:19:37.778Z,14624.00